Portada
METAR-TAF:

METAR-TAF

Aeroports :

Tomsk, Rússia

latitud: 56-23-12N, longitud: 085-12-38E, altitud: 182 m

Observació

L'informe es va fer fa 44 minuts, a les 16:00 UTC
Vent calma
Temperatura -31°C
Humitat 75%
Pressió 1025 hPa
Visibilitat 10 km o més
sense núvols per sota de 1500 mi sense presència de cumulonimbus.

METAR: UNTT 201600Z 00000MPS CAVOK M31/M34 Q1025 R21/490147 NOSIG RMK QFE754

Hora: 23:44 (16:44 UTC)

Pronòstic

L'informe es va fer fa 2 hores i 44 minuts, a les 14:00 UTC
Pronòstic vàlid del 20 a les 15 UTC al 20 a les 24 UTC
Vent 6 kt del Est amb ràfegues de 16 kt
Visibilitat 10 km o més
Núvols disperses a una alçada de 4000 ft

TAF: UNTT 201400Z 2015/2024 08003G08MPS 9999 SCT040

Observacions i pronòstics meteorològics de més de 4000 aeroports (METAR i TAF).

Les estacions disponibles són els punts grocs i vermells al mapa.

Posi el ratolí al punt desitjat per veure el nom de l'estació.

Feu clic per veure les observacions i els pronòstics meteorològics.

Per canviar el mapa: feu clic els botons verds amb una creu de color negre per apropar; al botó verd amb un guió per allunyar la imatge; o en les fletxes verdes per a mapes adjacents.


METAR-TAF: